sensor_id;sensor_type;location;lat;lon;timestamp;temperature;humidity
59881;DHT22;45751;51.380;10.326;2023-11-19T00:00:46;4.60;99.90
59881;DHT22;45751;51.380;10.326;2023-11-19T00:03:12;4.60;99.90
59881;DHT22;45751;51.380;10.326;2023-11-19T00:05:39;4.70;99.90
59881;DHT22;45751;51.380;10.326;2023-11-19T00:08:04;4.60;99.90
59881;DHT22;45751;51.380;10.326;2023-11-19T00:10:32;4.70;99.90
59881;DHT22;45751;51.380;10.326;2023-11-19T00:12:57;4.60;99.90
59881;DHT22;45751;51.380;10.326;2023-11-19T00:15:23;4.70;99.90
59881;DHT22;45751;51.380;10.326;2023-11-19T00:17:50;4.70;99.90
59881;DHT22;45751;51.380;10.326;2023-11-19T00:20:17;4.70;99.90
59881;DHT22;45751;51.380;10.326;2023-11-19T00:22:43;4.80;99.90
59881;DHT22;45751;51.380;10.326;2023-11-19T00:25:09;4.80;99.90
59881;DHT22;45751;51.380;10.326;2023-11-19T00:27:36;4.80;99.90
59881;DHT22;45751;51.380;10.326;2023-11-19T00:30:05;4.80;99.90
59881;DHT22;45751;51.380;10.326;2023-11-19T00:32:32;4.80;99.90
59881;DHT22;45751;51.380;10.326;2023-11-19T00:34:59;4.80;99.90
59881;DHT22;45751;51.380;10.326;2023-11-19T00:37:25;4.90;99.90
59881;DHT22;45751;51.380;10.326;2023-11-19T00:39:51;4.90;99.90
59881;DHT22;45751;51.380;10.326;2023-11-19T00:42:17;4.90;99.90
59881;DHT22;45751;51.380;10.326;2023-11-19T00:44:43;4.90;99.90
59881;DHT22;45751;51.380;10.326;2023-11-19T00:47:09;4.90;99.90
59881;DHT22;45751;51.380;10.326;2023-11-19T00:49:34;5.00;99.90
59881;DHT22;45751;51.380;10.326;2023-11-19T00:52:00;5.00;99.90
59881;DHT22;45751;51.380;10.326;2023-11-19T00:54:27;5.00;99.90
59881;DHT22;45751;51.380;10.326;2023-11-19T00:56:53;5.00;99.90
59881;DHT22;45751;51.380;10.326;2023-11-19T00:59:19;5.00;99.90
59881;DHT22;45751;51.380;10.326;2023-11-19T01:01:45;5.00;99.90
59881;DHT22;45751;51.380;10.326;2023-11-19T01:04:14;5.00;99.90
59881;DHT22;45751;51.380;10.326;2023-11-19T01:06:40;5.00;99.90
59881;DHT22;45751;51.380;10.326;2023-11-19T01:09:05;5.00;99.90
59881;DHT22;45751;51.380;10.326;2023-11-19T01:11:31;5.00;99.90
59881;DHT22;45751;51.380;10.326;2023-11-19T01:13:57;5.10;99.90
59881;DHT22;45751;51.380;10.326;2023-11-19T01:16:23;5.10;99.90
59881;DHT22;45751;51.380;10.326;2023-11-19T01:18:48;5.10;99.90
59881;DHT22;45751;51.380;10.326;2023-11-19T01:21:15;5.10;99.90
59881;DHT22;45751;51.380;10.326;2023-11-19T01:23:41;5.20;99.90
59881;DHT22;45751;51.380;10.326;2023-11-19T01:26:14;5.20;99.90
59881;DHT22;45751;51.380;10.326;2023-11-19T01:28:40;5.20;99.90
59881;DHT22;45751;51.380;10.326;2023-11-19T01:31:08;5.20;99.90
59881;DHT22;45751;51.380;10.326;2023-11-19T01:33:38;5.20;99.90
59881;DHT22;45751;51.380;10.326;2023-11-19T01:36:04;5.10;99.90
59881;DHT22;45751;51.380;10.326;2023-11-19T01:38:30;5.20;99.90
59881;DHT22;45751;51.380;10.326;2023-11-19T01:40:57;5.30;99.90
59881;DHT22;45751;51.380;10.326;2023-11-19T01:43:36;5.30;99.90
59881;DHT22;45751;51.380;10.326;2023-11-19T01:46:03;5.30;99.90
59881;DHT22;45751;51.380;10.326;2023-11-19T01:48:30;5.30;99.90
59881;DHT22;45751;51.380;10.326;2023-11-19T01:50:57;5.30;99.90
59881;DHT22;45751;51.380;10.326;2023-11-19T01:53:23;5.30;99.90
59881;DHT22;45751;51.380;10.326;2023-11-19T01:55:49;5.40;99.90
59881;DHT22;45751;51.380;10.326;2023-11-19T01:58:16;5.40;99.90
59881;DHT22;45751;51.380;10.326;2023-11-19T02:00:43;5.30;99.90
59881;DHT22;45751;51.380;10.326;2023-11-19T02:03:09;5.40;99.90
59881;DHT22;45751;51.380;10.326;2023-11-19T02:05:36;5.50;99.90
59881;DHT22;45751;51.380;10.326;2023-11-19T02:08:02;5.50;99.90
59881;DHT22;45751;51.380;10.326;2023-11-19T02:10:28;5.50;99.90
59881;DHT22;45751;51.380;10.326;2023-11-19T02:12:54;5.50;99.90
59881;DHT22;45751;51.380;10.326;2023-11-19T02:15:20;5.50;99.90
59881;DHT22;45751;51.380;10.326;2023-11-19T02:17:50;5.60;99.90
59881;DHT22;45751;51.380;10.326;2023-11-19T02:20:17;5.60;99.90
59881;DHT22;45751;51.380;10.326;2023-11-19T02:22:48;5.60;99.90
59881;DHT22;45751;51.380;10.326;2023-11-19T02:25:30;5.70;99.90
59881;DHT22;45751;51.380;10.326;2023-11-19T02:28:02;5.70;99.90
59881;DHT22;45751;51.380;10.326;2023-11-19T02:30:28;5.70;99.90
59881;DHT22;45751;51.380;10.326;2023-11-19T02:32:58;5.80;99.90
59881;DHT22;45751;51.380;10.326;2023-11-19T02:35:26;5.80;99.90
59881;DHT22;45751;51.380;10.326;2023-11-19T02:37:53;5.90;99.90
59881;DHT22;45751;51.380;10.326;2023-11-19T02:40:19;5.80;99.90
59881;DHT22;45751;51.380;10.326;2023-11-19T02:42:45;5.80;99.90
59881;DHT22;45751;51.380;10.326;2023-11-19T02:45:11;5.90;99.90
59881;DHT22;45751;51.380;10.326;2023-11-19T02:47:43;5.90;99.90
59881;DHT22;45751;51.380;10.326;2023-11-19T02:50:10;6.00;99.90
59881;DHT22;45751;51.380;10.326;2023-11-19T02:52:44;5.90;99.90
59881;DHT22;45751;51.380;10.326;2023-11-19T02:55:11;5.90;99.90
59881;DHT22;45751;51.380;10.326;2023-11-19T02:57:41;6.00;99.90
59881;DHT22;45751;51.380;10.326;2023-11-19T03:00:18;5.90;99.90
59881;DHT22;45751;51.380;10.326;2023-11-19T03:02:44;6.00;99.90
59881;DHT22;45751;51.380;10.326;2023-11-19T03:05:14;6.00;99.90
59881;DHT22;45751;51.380;10.326;2023-11-19T03:07:41;6.10;99.90
59881;DHT22;45751;51.380;10.326;2023-11-19T03:10:08;6.10;99.90
59881;DHT22;45751;51.380;10.326;2023-11-19T03:12:34;6.00;99.90
59881;DHT22;45751;51.380;10.326;2023-11-19T03:15:01;6.10;99.90
59881;DHT22;45751;51.380;10.326;2023-11-19T03:17:27;6.10;99.90
59881;DHT22;45751;51.380;10.326;2023-11-19T03:19:52;6.10;99.90
59881;DHT22;45751;51.380;10.326;2023-11-19T03:22:18;6.10;99.90
59881;DHT22;45751;51.380;10.326;2023-11-19T03:24:44;6.20;99.90
59881;DHT22;45751;51.380;10.326;2023-11-19T03:27:09;6.20;99.90
59881;DHT22;45751;51.380;10.326;2023-11-19T03:29:35;6.20;99.90
59881;DHT22;45751;51.380;10.326;2023-11-19T03:32:01;6.20;99.90
59881;DHT22;45751;51.380;10.326;2023-11-19T03:34:27;6.20;99.90
59881;DHT22;45751;51.380;10.326;2023-11-19T03:36:52;6.20;99.90
59881;DHT22;45751;51.380;10.326;2023-11-19T03:39:18;6.20;99.90
59881;DHT22;45751;51.380;10.326;2023-11-19T03:41:45;6.30;99.90
59881;DHT22;45751;51.380;10.326;2023-11-19T03:44:12;6.10;99.90
59881;DHT22;45751;51.380;10.326;2023-11-19T03:46:38;6.30;99.90
59881;DHT22;45751;51.380;10.326;2023-11-19T03:49:03;6.30;99.90
59881;DHT22;45751;51.380;10.326;2023-11-19T03:51:33;6.30;99.90
59881;DHT22;45751;51.380;10.326;2023-11-19T03:54:00;6.30;99.90
59881;DHT22;45751;51.380;10.326;2023-11-19T03:56:26;6.30;99.90
59881;DHT22;45751;51.380;10.326;2023-11-19T03:58:52;6.30;99.90
59881;DHT22;45751;51.380;10.326;2023-11-19T04:01:18;6.30;99.90
59881;DHT22;45751;51.380;10.326;2023-11-19T04:03:45;6.40;99.90
59881;DHT22;45751;51.380;10.326;2023-11-19T04:06:10;6.40;99.90
59881;DHT22;45751;51.380;10.326;2023-11-19T04:08:36;6.40;99.90
59881;DHT22;45751;51.380;10.326;2023-11-19T04:11:05;6.40;99.90
59881;DHT22;45751;51.380;10.326;2023-11-19T04:13:31;6.40;99.90
59881;DHT22;45751;51.380;10.326;2023-11-19T04:15:56;6.40;99.90
59881;DHT22;45751;51.380;10.326;2023-11-19T04:18:22;6.50;99.90
59881;DHT22;45751;51.380;10.326;2023-11-19T04:20:48;6.50;99.90
59881;DHT22;45751;51.380;10.326;2023-11-19T04:23:14;6.40;99.90
59881;DHT22;45751;51.380;10.326;2023-11-19T04:25:39;6.50;99.90
59881;DHT22;45751;51.380;10.326;2023-11-19T04:28:05;6.50;99.90
59881;DHT22;45751;51.380;10.326;2023-11-19T04:30:31;6.50;99.90
59881;DHT22;45751;51.380;10.326;2023-11-19T04:32:57;6.60;99.90
59881;DHT22;45751;51.380;10.326;2023-11-19T04:35:23;6.60;99.90
59881;DHT22;45751;51.380;10.326;2023-11-19T04:37:49;6.60;99.90
59881;DHT22;45751;51.380;10.326;2023-11-19T04:40:14;6.70;99.90
59881;DHT22;45751;51.380;10.326;2023-11-19T04:42:40;6.70;99.90
59881;DHT22;45751;51.380;10.326;2023-11-19T04:45:06;6.70;99.90
59881;DHT22;45751;51.380;10.326;2023-11-19T04:47:36;6.70;99.90
59881;DHT22;45751;51.380;10.326;2023-11-19T04:50:02;6.70;99.90
59881;DHT22;45751;51.380;10.326;2023-11-19T04:52:28;6.70;99.90
59881;DHT22;45751;51.380;10.326;2023-11-19T04:54:54;6.80;99.90
59881;DHT22;45751;51.380;10.326;2023-11-19T04:57:20;6.80;99.90
59881;DHT22;45751;51.380;10.326;2023-11-19T04:59:45;6.80;99.90
59881;DHT22;45751;51.380;10.326;2023-11-19T05:02:11;6.80;99.90
59881;DHT22;45751;51.380;10.326;2023-11-19T05:04:37;6.80;99.90
59881;DHT22;45751;51.380;10.326;2023-11-19T05:07:05;6.80;99.90
59881;DHT22;45751;51.380;10.326;2023-11-19T05:09:32;6.80;99.90
59881;DHT22;45751;51.380;10.326;2023-11-19T05:11:58;6.90;99.90
59881;DHT22;45751;51.380;10.326;2023-11-19T05:14:23;6.90;99.90
59881;DHT22;45751;51.380;10.326;2023-11-19T05:16:50;6.90;99.90
59881;DHT22;45751;51.380;10.326;2023-11-19T05:19:15;7.00;99.90
59881;DHT22;45751;51.380;10.326;2023-11-19T05:21:44;7.00;99.90
59881;DHT22;45751;51.380;10.326;2023-11-19T05:24:10;7.00;99.90
59881;DHT22;45751;51.380;10.326;2023-11-19T05:26:37;7.10;99.90
59881;DHT22;45751;51.380;10.326;2023-11-19T05:29:03;7.00;99.90
59881;DHT22;45751;51.380;10.326;2023-11-19T05:31:30;7.00;99.90
59881;DHT22;45751;51.380;10.326;2023-11-19T05:33:55;7.00;99.90
59881;DHT22;45751;51.380;10.326;2023-11-19T05:36:21;7.00;99.90
59881;DHT22;45751;51.380;10.326;2023-11-19T05:38:47;7.00;99.90
59881;DHT22;45751;51.380;10.326;2023-11-19T05:41:13;7.00;99.90
59881;DHT22;45751;51.380;10.326;2023-11-19T05:43:38;7.00;99.90
59881;DHT22;45751;51.380;10.326;2023-11-19T05:46:06;7.00;99.90
59881;DHT22;45751;51.380;10.326;2023-11-19T05:48:32;7.00;99.90
59881;DHT22;45751;51.380;10.326;2023-11-19T05:50:58;7.00;99.90
59881;DHT22;45751;51.380;10.326;2023-11-19T05:53:24;7.00;99.90
59881;DHT22;45751;51.380;10.326;2023-11-19T05:55:50;7.10;99.90
59881;DHT22;45751;51.380;10.326;2023-11-19T05:58:27;7.10;99.90
59881;DHT22;45751;51.380;10.326;2023-11-19T06:00:56;7.10;99.90
59881;DHT22;45751;51.380;10.326;2023-11-19T06:03:22;7.10;99.90
59881;DHT22;45751;51.380;10.326;2023-11-19T06:05:49;7.20;99.90
59881;DHT22;45751;51.380;10.326;2023-11-19T06:08:14;7.20;99.90
59881;DHT22;45751;51.380;10.326;2023-11-19T06:10:41;7.30;99.90
59881;DHT22;45751;51.380;10.326;2023-11-19T06:13:07;7.30;99.90
59881;DHT22;45751;51.380;10.326;2023-11-19T06:15:35;7.40;99.90
59881;DHT22;45751;51.380;10.326;2023-11-19T06:18:02;7.40;99.90
59881;DHT22;45751;51.380;10.326;2023-11-19T06:20:33;7.40;99.90
59881;DHT22;45751;51.380;10.326;2023-11-19T06:22:59;7.50;99.90
59881;DHT22;45751;51.380;10.326;2023-11-19T06:25:25;7.50;99.90
59881;DHT22;45751;51.380;10.326;2023-11-19T06:27:52;7.60;99.90
59881;DHT22;45751;51.380;10.326;2023-11-19T06:30:18;7.60;99.90
59881;DHT22;45751;51.380;10.326;2023-11-19T06:32:44;7.60;99.90
59881;DHT22;45751;51.380;10.326;2023-11-19T06:35:10;7.70;99.90
59881;DHT22;45751;51.380;10.326;2023-11-19T06:37:38;7.70;99.90
59881;DHT22;45751;51.380;10.326;2023-11-19T06:40:04;7.70;99.90
59881;DHT22;45751;51.380;10.326;2023-11-19T06:42:31;7.70;99.90
59881;DHT22;45751;51.380;10.326;2023-11-19T06:44:56;7.70;99.90
59881;DHT22;45751;51.380;10.326;2023-11-19T06:47:26;7.70;99.90
59881;DHT22;45751;51.380;10.326;2023-11-19T06:49:53;7.70;99.90
59881;DHT22;45751;51.380;10.326;2023-11-19T06:52:19;7.70;99.90
59881;DHT22;45751;51.380;10.326;2023-11-19T06:54:45;7.70;99.90
59881;DHT22;45751;51.380;10.326;2023-11-19T06:57:13;7.70;99.90
59881;DHT22;45751;51.380;10.326;2023-11-19T06:59:39;7.70;99.90
59881;DHT22;45751;51.380;10.326;2023-11-19T07:02:06;7.70;99.90
59881;DHT22;45751;51.380;10.326;2023-11-19T07:04:32;7.80;99.90
59881;DHT22;45751;51.380;10.326;2023-11-19T07:06:59;7.80;99.90
59881;DHT22;45751;51.380;10.326;2023-11-19T07:09:25;7.70;99.90
59881;DHT22;45751;51.380;10.326;2023-11-19T07:11:51;7.90;99.90
59881;DHT22;45751;51.380;10.326;2023-11-19T07:14:18;7.90;99.90
59881;DHT22;45751;51.380;10.326;2023-11-19T07:16:44;7.90;99.90
59881;DHT22;45751;51.380;10.326;2023-11-19T07:19:11;8.10;99.90
59881;DHT22;45751;51.380;10.326;2023-11-19T07:21:41;8.00;99.90
59881;DHT22;45751;51.380;10.326;2023-11-19T07:24:10;8.10;99.90
59881;DHT22;45751;51.380;10.326;2023-11-19T07:26:42;8.10;99.90
59881;DHT22;45751;51.380;10.326;2023-11-19T07:29:08;8.10;99.90
59881;DHT22;45751;51.380;10.326;2023-11-19T07:31:34;8.10;99.90
59881;DHT22;45751;51.380;10.326;2023-11-19T07:34:00;8.10;99.90
59881;DHT22;45751;51.380;10.326;2023-11-19T07:36:25;8.10;99.90
59881;DHT22;45751;51.380;10.326;2023-11-19T07:38:51;8.20;99.90
59881;DHT22;45751;51.380;10.326;2023-11-19T07:41:16;8.20;99.90
59881;DHT22;45751;51.380;10.326;2023-11-19T07:43:45;8.20;99.90
59881;DHT22;45751;51.380;10.326;2023-11-19T07:46:12;8.30;99.90
59881;DHT22;45751;51.380;10.326;2023-11-19T07:48:39;8.30;99.90
59881;DHT22;45751;51.380;10.326;2023-11-19T07:51:05;8.30;99.90
59881;DHT22;45751;51.380;10.326;2023-11-19T07:53:31;8.40;99.90
59881;DHT22;45751;51.380;10.326;2023-11-19T07:55:58;8.40;99.90
59881;DHT22;45751;51.380;10.326;2023-11-19T07:58:25;8.50;99.90
59881;DHT22;45751;51.380;10.326;2023-11-19T08:00:51;8.50;99.90
59881;DHT22;45751;51.380;10.326;2023-11-19T08:03:17;8.50;99.90
59881;DHT22;45751;51.380;10.326;2023-11-19T08:05:45;8.70;99.90
59881;DHT22;45751;51.380;10.326;2023-11-19T08:08:12;8.60;99.90
59881;DHT22;45751;51.380;10.326;2023-11-19T08:10:38;8.60;99.90
59881;DHT22;45751;51.380;10.326;2023-11-19T08:13:04;8.60;99.90
59881;DHT22;45751;51.380;10.326;2023-11-19T08:15:29;8.60;99.90
59881;DHT22;45751;51.380;10.326;2023-11-19T08:17:55;8.70;99.90
59881;DHT22;45751;51.380;10.326;2023-11-19T08:20:22;8.70;99.90
59881;DHT22;45751;51.380;10.326;2023-11-19T08:22:47;8.70;99.90
59881;DHT22;45751;51.380;10.326;2023-11-19T08:25:13;8.70;99.90
59881;DHT22;45751;51.380;10.326;2023-11-19T08:27:39;8.70;99.90
59881;DHT22;45751;51.380;10.326;2023-11-19T08:30:05;8.70;99.90
59881;DHT22;45751;51.380;10.326;2023-11-19T08:32:32;8.70;99.90
59881;DHT22;45751;51.380;10.326;2023-11-19T08:34:57;8.80;99.90
59881;DHT22;45751;51.380;10.326;2023-11-19T08:37:23;8.80;99.90
59881;DHT22;45751;51.380;10.326;2023-11-19T08:39:50;8.80;99.90
59881;DHT22;45751;51.380;10.326;2023-11-19T08:42:18;8.80;99.90
59881;DHT22;45751;51.380;10.326;2023-11-19T08:44:49;8.80;99.90
59881;DHT22;45751;51.380;10.326;2023-11-19T08:47:19;8.80;99.90
59881;DHT22;45751;51.380;10.326;2023-11-19T08:49:44;8.80;99.90
59881;DHT22;45751;51.380;10.326;2023-11-19T08:52:11;8.90;99.90
59881;DHT22;45751;51.380;10.326;2023-11-19T08:54:36;8.90;99.90
59881;DHT22;45751;51.380;10.326;2023-11-19T08:57:03;9.00;99.90
59881;DHT22;45751;51.380;10.326;2023-11-19T08:59:29;9.00;99.90
59881;DHT22;45751;51.380;10.326;2023-11-19T09:01:55;9.10;99.90
59881;DHT22;45751;51.380;10.326;2023-11-19T09:04:21;9.10;99.90
59881;DHT22;45751;51.380;10.326;2023-11-19T09:06:48;9.20;99.90
59881;DHT22;45751;51.380;10.326;2023-11-19T09:09:14;9.20;99.90
59881;DHT22;45751;51.380;10.326;2023-11-19T09:11:40;9.30;99.90
59881;DHT22;45751;51.380;10.326;2023-11-19T09:14:06;9.30;99.90
59881;DHT22;45751;51.380;10.326;2023-11-19T09:16:32;9.40;99.90
59881;DHT22;45751;51.380;10.326;2023-11-19T09:18:58;9.30;99.90
59881;DHT22;45751;51.380;10.326;2023-11-19T09:21:26;9.40;99.90
59881;DHT22;45751;51.380;10.326;2023-11-19T09:23:51;9.40;99.90
59881;DHT22;45751;51.380;10.326;2023-11-19T09:26:18;9.40;99.90
59881;DHT22;45751;51.380;10.326;2023-11-19T09:28:44;9.30;99.90
59881;DHT22;45751;51.380;10.326;2023-11-19T09:31:13;9.40;99.90
59881;DHT22;45751;51.380;10.326;2023-11-19T09:33:39;9.30;99.90
59881;DHT22;45751;51.380;10.326;2023-11-19T09:36:05;9.40;99.90
59881;DHT22;45751;51.380;10.326;2023-11-19T09:38:31;9.40;99.90
59881;DHT22;45751;51.380;10.326;2023-11-19T09:40:58;9.40;99.90
59881;DHT22;45751;51.380;10.326;2023-11-19T09:43:27;9.40;99.90
59881;DHT22;45751;51.380;10.326;2023-11-19T09:45:55;9.40;99.90
59881;DHT22;45751;51.380;10.326;2023-11-19T09:48:21;9.40;99.90
59881;DHT22;45751;51.380;10.326;2023-11-19T09:50:50;9.40;99.90
59881;DHT22;45751;51.380;10.326;2023-11-19T09:53:17;9.50;99.90
59881;DHT22;45751;51.380;10.326;2023-11-19T09:55:43;9.50;99.90
59881;DHT22;45751;51.380;10.326;2023-11-19T09:58:11;9.50;99.90
59881;DHT22;45751;51.380;10.326;2023-11-19T10:00:37;9.60;99.90
59881;DHT22;45751;51.380;10.326;2023-11-19T10:03:04;9.60;99.90
59881;DHT22;45751;51.380;10.326;2023-11-19T10:05:31;9.60;99.90
59881;DHT22;45751;51.380;10.326;2023-11-19T10:07:58;9.70;99.90
59881;DHT22;45751;51.380;10.326;2023-11-19T10:10:24;9.70;99.90
59881;DHT22;45751;51.380;10.326;2023-11-19T10:12:52;9.70;99.90
59881;DHT22;45751;51.380;10.326;2023-11-19T10:15:22;9.80;99.90
59881;DHT22;45751;51.380;10.326;2023-11-19T10:17:50;9.80;99.90
59881;DHT22;45751;51.380;10.326;2023-11-19T10:20:16;9.90;99.90
59881;DHT22;45751;51.380;10.326;2023-11-19T10:22:41;9.90;99.90
59881;DHT22;45751;51.380;10.326;2023-11-19T10:25:27;9.90;99.90
59881;DHT22;45751;51.380;10.326;2023-11-19T10:27:54;9.90;99.90
59881;DHT22;45751;51.380;10.326;2023-11-19T10:30:24;10.00;99.90
59881;DHT22;45751;51.380;10.326;2023-11-19T10:33:19;9.90;99.90
59881;DHT22;45751;51.380;10.326;2023-11-19T10:35:57;9.90;99.90
59881;DHT22;45751;51.380;10.326;2023-11-19T10:38:24;10.00;99.90
59881;DHT22;45751;51.380;10.326;2023-11-19T10:40:51;10.10;99.90
59881;DHT22;45751;51.380;10.326;2023-11-19T10:43:18;10.00;99.90
59881;DHT22;45751;51.380;10.326;2023-11-19T10:45:44;10.10;99.90
59881;DHT22;45751;51.380;10.326;2023-11-19T10:48:10;10.10;99.90
59881;DHT22;45751;51.380;10.326;2023-11-19T10:50:37;10.10;99.90
59881;DHT22;45751;51.380;10.326;2023-11-19T10:53:04;10.20;99.90
59881;DHT22;45751;51.380;10.326;2023-11-19T10:55:32;10.30;99.90
59881;DHT22;45751;51.380;10.326;2023-11-19T10:58:03;10.30;99.90
59881;DHT22;45751;51.380;10.326;2023-11-19T11:00:30;10.40;99.90
59881;DHT22;45751;51.380;10.326;2023-11-19T11:03:02;10.50;99.90
59881;DHT22;45751;51.380;10.326;2023-11-19T11:05:32;10.40;99.90
59881;DHT22;45751;51.380;10.326;2023-11-19T11:08:01;10.50;99.90
59881;DHT22;45751;51.380;10.326;2023-11-19T11:10:28;10.40;99.90
59881;DHT22;45751;51.380;10.326;2023-11-19T11:12:59;10.40;99.90
59881;DHT22;45751;51.380;10.326;2023-11-19T11:15:29;10.40;99.90
59881;DHT22;45751;51.380;10.326;2023-11-19T11:17:59;10.40;99.90
59881;DHT22;45751;51.380;10.326;2023-11-19T11:20:30;10.40;99.90
59881;DHT22;45751;51.380;10.326;2023-11-19T11:28:29;10.30;99.90
59881;DHT22;45751;51.380;10.326;2023-11-19T11:31:23;10.30;99.90
59881;DHT22;45751;51.380;10.326;2023-11-19T11:34:15;10.40;99.90
59881;DHT22;45751;51.380;10.326;2023-11-19T11:39:28;10.50;99.90
59881;DHT22;45751;51.380;10.326;2023-11-19T11:50:08;10.60;99.90
59881;DHT22;45751;51.380;10.326;2023-11-19T11:55:35;10.50;99.90
59881;DHT22;45751;51.380;10.326;2023-11-19T11:58:02;10.50;99.90
59881;DHT22;45751;51.380;10.326;2023-11-19T12:00:33;10.50;99.90
59881;DHT22;45751;51.380;10.326;2023-11-19T12:03:04;10.50;99.90
59881;DHT22;45751;51.380;10.326;2023-11-19T12:05:30;10.50;99.90
59881;DHT22;45751;51.380;10.326;2023-11-19T12:07:56;10.50;99.90
59881;DHT22;45751;51.380;10.326;2023-11-19T12:10:24;10.50;99.90
59881;DHT22;45751;51.380;10.326;2023-11-19T12:12:53;10.40;99.90
59881;DHT22;45751;51.380;10.326;2023-11-19T12:15:19;10.40;99.90
59881;DHT22;45751;51.380;10.326;2023-11-19T12:17:50;10.40;99.90
59881;DHT22;45751;51.380;10.326;2023-11-19T12:20:18;10.40;99.90
59881;DHT22;45751;51.380;10.326;2023-11-19T12:22:45;10.40;99.90
59881;DHT22;45751;51.380;10.326;2023-11-19T12:25:12;10.50;99.90
59881;DHT22;45751;51.380;10.326;2023-11-19T12:27:46;10.40;99.90
59881;DHT22;45751;51.380;10.326;2023-11-19T12:30:12;10.40;99.90
59881;DHT22;45751;51.380;10.326;2023-11-19T12:32:43;10.40;99.90
59881;DHT22;45751;51.380;10.326;2023-11-19T12:35:10;10.30;99.90
59881;DHT22;45751;51.380;10.326;2023-11-19T12:37:42;10.50;99.90
59881;DHT22;45751;51.380;10.326;2023-11-19T12:42:43;10.40;99.90
59881;DHT22;45751;51.380;10.326;2023-11-19T12:45:09;10.30;99.90
59881;DHT22;45751;51.380;10.326;2023-11-19T12:47:41;10.40;99.90
59881;DHT22;45751;51.380;10.326;2023-11-19T12:50:08;10.40;99.90
59881;DHT22;45751;51.380;10.326;2023-11-19T12:52:37;10.30;99.90
59881;DHT22;45751;51.380;10.326;2023-11-19T12:55:04;10.30;99.90
59881;DHT22;45751;51.380;10.326;2023-11-19T12:57:42;10.30;99.90
59881;DHT22;45751;51.380;10.326;2023-11-19T13:00:19;10.40;99.90
59881;DHT22;45751;51.380;10.326;2023-11-19T13:02:50;10.40;99.90
59881;DHT22;45751;51.380;10.326;2023-11-19T13:05:27;10.40;99.90
59881;DHT22;45751;51.380;10.326;2023-11-19T13:10:31;10.60;99.90
59881;DHT22;45751;51.380;10.326;2023-11-19T13:13:04;10.60;99.90
59881;DHT22;45751;51.380;10.326;2023-11-19T13:15:32;10.70;99.50
59881;DHT22;45751;51.380;10.326;2023-11-19T13:17:58;10.70;99.00
59881;DHT22;45751;51.380;10.326;2023-11-19T13:20:24;10.70;98.60
59881;DHT22;45751;51.380;10.326;2023-11-19T13:23:00;10.70;98.60
59881;DHT22;45751;51.380;10.326;2023-11-19T13:25:27;10.60;98.60
59881;DHT22;45751;51.380;10.326;2023-11-19T13:27:53;10.60;98.70
59881;DHT22;45751;51.380;10.326;2023-11-19T13:30:20;10.60;98.70
59881;DHT22;45751;51.380;10.326;2023-11-19T13:32:46;10.50;98.70
59881;DHT22;45751;51.380;10.326;2023-11-19T13:35:12;10.50;98.80
59881;DHT22;45751;51.380;10.326;2023-11-19T13:37:39;10.60;98.70
59881;DHT22;45751;51.380;10.326;2023-11-19T13:40:06;10.70;98.80
59881;DHT22;45751;51.380;10.326;2023-11-19T13:42:32;10.60;98.60
59881;DHT22;45751;51.380;10.326;2023-11-19T13:44:58;10.70;98.90
59881;DHT22;45751;51.380;10.326;2023-11-19T13:47:24;10.70;98.80
59881;DHT22;45751;51.380;10.326;2023-11-19T13:49:50;10.60;98.80
59881;DHT22;45751;51.380;10.326;2023-11-19T13:52:15;10.70;99.00
59881;DHT22;45751;51.380;10.326;2023-11-19T13:54:41;10.80;98.90
59881;DHT22;45751;51.380;10.326;2023-11-19T13:57:07;10.70;99.10
59881;DHT22;45751;51.380;10.326;2023-11-19T13:59:32;10.90;98.70
59881;DHT22;45751;51.380;10.326;2023-11-19T14:01:58;10.90;97.60
59881;DHT22;45751;51.380;10.326;2023-11-19T14:04:24;10.90;97.60
59881;DHT22;45751;51.380;10.326;2023-11-19T14:06:51;10.80;97.80
59881;DHT22;45751;51.380;10.326;2023-11-19T14:09:17;10.80;97.00
59881;DHT22;45751;51.380;10.326;2023-11-19T14:11:43;10.80;96.80
59881;DHT22;45751;51.380;10.326;2023-11-19T14:14:09;10.80;96.60
59881;DHT22;45751;51.380;10.326;2023-11-19T14:16:35;10.80;96.60
59881;DHT22;45751;51.380;10.326;2023-11-19T14:19:01;10.70;96.20
59881;DHT22;45751;51.380;10.326;2023-11-19T14:21:26;10.70;96.20
59881;DHT22;45751;51.380;10.326;2023-11-19T14:23:53;10.70;96.00
59881;DHT22;45751;51.380;10.326;2023-11-19T14:26:18;10.70;95.60
59881;DHT22;45751;51.380;10.326;2023-11-19T14:28:44;10.70;95.50
59881;DHT22;45751;51.380;10.326;2023-11-19T14:31:10;10.70;95.70
59881;DHT22;45751;51.380;10.326;2023-11-19T14:33:36;10.70;95.60
59881;DHT22;45751;51.380;10.326;2023-11-19T14:36:04;10.70;95.80
59881;DHT22;45751;51.380;10.326;2023-11-19T14:38:30;10.70;95.80
59881;DHT22;45751;51.380;10.326;2023-11-19T14:40:56;10.70;96.00
59881;DHT22;45751;51.380;10.326;2023-11-19T14:43:21;10.70;96.20
59881;DHT22;45751;51.380;10.326;2023-11-19T14:45:47;10.70;96.50
59881;DHT22;45751;51.380;10.326;2023-11-19T14:48:13;10.70;96.40
59881;DHT22;45751;51.380;10.326;2023-11-19T14:50:39;10.70;96.40
59881;DHT22;45751;51.380;10.326;2023-11-19T14:53:05;10.60;96.50
59881;DHT22;45751;51.380;10.326;2023-11-19T14:55:31;10.60;96.50
59881;DHT22;45751;51.380;10.326;2023-11-19T14:57:57;10.50;96.80
59881;DHT22;45751;51.380;10.326;2023-11-19T15:00:23;10.60;96.90
59881;DHT22;45751;51.380;10.326;2023-11-19T15:02:48;10.50;97.00
59881;DHT22;45751;51.380;10.326;2023-11-19T15:05:14;10.50;97.00
59881;DHT22;45751;51.380;10.326;2023-11-19T15:07:40;10.50;97.20
59881;DHT22;45751;51.380;10.326;2023-11-19T15:10:06;10.40;97.60
59881;DHT22;45751;51.380;10.326;2023-11-19T15:12:39;10.50;97.20
59881;DHT22;45751;51.380;10.326;2023-11-19T15:15:07;10.40;97.30
59881;DHT22;45751;51.380;10.326;2023-11-19T15:17:34;10.40;97.60
59881;DHT22;45751;51.380;10.326;2023-11-19T15:19:59;10.40;97.50
59881;DHT22;45751;51.380;10.326;2023-11-19T15:22:25;10.30;97.40
59881;DHT22;45751;51.380;10.326;2023-11-19T15:24:52;10.40;97.30
59881;DHT22;45751;51.380;10.326;2023-11-19T15:27:18;10.30;97.50
59881;DHT22;45751;51.380;10.326;2023-11-19T15:29:44;10.30;97.60
59881;DHT22;45751;51.380;10.326;2023-11-19T15:32:09;10.30;97.60
59881;DHT22;45751;51.380;10.326;2023-11-19T15:34:35;10.30;97.70
59881;DHT22;45751;51.380;10.326;2023-11-19T15:37:03;10.30;97.80
59881;DHT22;45751;51.380;10.326;2023-11-19T15:39:29;10.30;97.70
59881;DHT22;45751;51.380;10.326;2023-11-19T15:41:57;10.30;97.80
59881;DHT22;45751;51.380;10.326;2023-11-19T15:44:25;10.30;97.90
59881;DHT22;45751;51.380;10.326;2023-11-19T15:46:50;10.30;98.30
59881;DHT22;45751;51.380;10.326;2023-11-19T15:49:16;10.20;99.20